KDLZKDET

Guest
Details From KDLZ - DELAWARE MUNI
To KDET - Coleman A. Young Muni
Flight Number -
Tags generated
Created
Modified
Stats Distance 128 nm / 238 km
Max Altitude 4,500 ft / 1,372 m
Waypoints 3
Social Downloads 0
Likes 0
Share VATSIM

Download

Looking for another format? Having issues loading an existing format? Contact us
Advertisement - Login to hide

Notes

Basic altitude profile: - Ascent Rate: 1200ft/min - Ascent Speed: 100kts - Cruise Altitude: 17500ft - Cruise Speed: 220kts - Descent Rate: 1000ft/min - Descent Speed: 175kts Options: - Use NATs: yes - Use PACOTS: yes - Use low airways: no - Use high airways: yes

Route

KDLZ CRL15 KDET

ID Type Via Altitude Latitude Longitude Leg Dist Tot Dist Heading (true) Name
O KDLZ APT - 0 ft / 0 m 40.27970˚ -83.11480˚ - 0 nm - DELAWARE MUNI
CRL15 FIX - 4,500 ft / 1,372 m 42.06503˚ -83.12253˚ 107 nm 107 nm 360° / 360° -
O KDET APT - 0 ft / 0 m 42.40886˚ -83.00984˚ 21 nm 128 nm 14° / 14° Coleman A. Young Muni

Altitude Profile

Advertisement - Login to hide

KDLZ

Details ICAO KDLZ
Name DELAWARE MUNI
Region United States
Timezone America/New_York (UTC-4.0)
Stats Elevation 945 ft / 288 m (AMSL)
Location 40.279702° -83.114801°
Runways 1
Magnetic Variation 7.106° W

METAR

KDLZ 210937Z AUTO 05004KT 10SM SCT030 BKN060 14/12 A3016 RMK AO2

Decode

TAF

Not found

Departure Runways

ID Width Length Bearing (true) Bearing (mag) Surface Threshold Offset Overrun Length
10 100 ft / 30 m 4,989 ft / 1,521 m 98.37° 105.48° Asphalt 0 ft / 0 m 0 ft / 0 m
28 100 ft / 30 m 4,989 ft / 1,521 m 278.38° 285.49° Asphalt 0 ft / 0 m 0 ft / 0 m

KDET

Details ICAO KDET (DET)
Name Coleman A. Young Muni
Region United States
Timezone America/Detroit (UTC-4.0)
Stats Elevation 626 ft / 191 m (AMSL)
Location 42.408861° -83.009840°
Runways 2
Magnetic Variation 7.606° W

METAR

KDET 210853Z 02005KT 10SM CLR 09/06 A3022 RMK AO2 SLP234 T00890056 56002

Decode

TAF

KDET 210524Z 2106/2206 06005KT 6SM BR BKN250 FM211400 09010KT P6SM OVC100 FM212000 09010KT 6SM -SHRA OVC045 FM220100 12010KT 6SM -SHRA OVC025

Decode

Destination Runways

ID Width Length Bearing (true) Bearing (mag) Surface Threshold Offset Overrun Length
07 98 ft / 30 m 4,029 ft / 1,228 m 63.50° 71.11° Asphalt 715 ft / 218 m 0 ft / 0 m
15 98 ft / 30 m 5,090 ft / 1,552 m 143.42° 151.03° Asphalt 0 ft / 0 m 49 ft / 15 m
25 98 ft / 30 m 4,029 ft / 1,228 m 243.51° 251.12° Asphalt 715 ft / 218 m 49 ft / 15 m
33 98 ft / 30 m 5,090 ft / 1,552 m 323.43° 331.04° Asphalt 0 ft / 0 m 49 ft / 15 m

Approach Navaids

Runway Type Ident Frequency Range Bearing (true) Bearing (mag) Slope Elevation
15 Localiser IDET 111.30 MHz 18 nm / 33 km 143.39° 151.00° - 626 ft / 191 m (AMSL)
15 Glidescope IDET 111.30 MHz 10 nm / 19 km 143.43° 151.03° 3.00° 624 ft / 190 m (AMSL)
33 Localiser IVQM 111.30 MHz 18 nm / 33 km 323.43° 331.03° - 626 ft / 191 m (AMSL)
33 Glidescope IVQM 111.30 MHz 10 nm / 19 km 323.43° 331.03° 3.00° 623 ft / 190 m (AMSL)